sensor_id;sensor_type;location;lat;lon;timestamp;pressure;altitude;pressure_sealevel;temperature;humidity
37694;BME280;23531;50.122;8.644;2023-03-23T00:01:37;99687.97;;;14.90;47.97
37694;BME280;23531;50.122;8.644;2023-03-23T00:03:38;99684.97;;;14.87;48.30
37694;BME280;23531;50.122;8.644;2023-03-23T00:05:40;99685.28;;;14.90;48.52
37694;BME280;23531;50.122;8.644;2023-03-23T00:07:41;99694.75;;;14.88;48.60
37694;BME280;23531;50.122;8.644;2023-03-23T00:09:46;99695.50;;;14.83;48.75
37694;BME280;23531;50.122;8.644;2023-03-23T00:11:47;99679.81;;;14.85;48.81
37694;BME280;23531;50.122;8.644;2023-03-23T00:13:50;99688.53;;;14.93;49.35
37694;BME280;23531;50.122;8.644;2023-03-23T00:15:51;99689.94;;;14.95;48.81
37694;BME280;23531;50.122;8.644;2023-03-23T00:17:53;99688.53;;;14.93;48.77
37694;BME280;23531;50.122;8.644;2023-03-23T00:20:02;99688.53;;;14.93;48.59
37694;BME280;23531;50.122;8.644;2023-03-23T00:22:05;99696.56;;;14.82;48.51
37694;BME280;23531;50.122;8.644;2023-03-23T00:24:08;99688.25;;;14.89;48.81
37694;BME280;23531;50.122;8.644;2023-03-23T00:26:12;99687.69;;;14.87;48.77
37694;BME280;23531;50.122;8.644;2023-03-23T00:28:13;99690.66;;;14.85;49.04
37694;BME280;23531;50.122;8.644;2023-03-23T00:30:15;99693.97;;;14.93;49.37
37694;BME280;23531;50.122;8.644;2023-03-23T00:32:17;99693.66;;;14.89;49.01
37694;BME280;23531;50.122;8.644;2023-03-23T00:34:21;99694.09;;;14.81;48.98
37694;BME280;23531;50.122;8.644;2023-03-23T00:36:22;99689.50;;;14.81;49.26
37694;BME280;23531;50.122;8.644;2023-03-23T00:38:24;99697.13;;;14.84;49.27
37694;BME280;23531;50.122;8.644;2023-03-23T00:40:25;99686.81;;;14.81;49.04
37694;BME280;23531;50.122;8.644;2023-03-23T00:42:28;99689.47;;;14.76;49.46
37694;BME280;23531;50.122;8.644;2023-03-23T00:44:30;99691.63;;;14.74;49.50
37694;BME280;23531;50.122;8.644;2023-03-23T00:46:32;99682.72;;;14.79;49.62
37694;BME280;23531;50.122;8.644;2023-03-23T00:48:33;99671.88;;;14.79;49.31
37694;BME280;23531;50.122;8.644;2023-03-23T00:50:35;99670.00;;;14.79;49.32
37694;BME280;23531;50.122;8.644;2023-03-23T00:52:37;99665.78;;;14.88;49.45
37694;BME280;23531;50.122;8.644;2023-03-23T00:54:38;99663.03;;;14.83;49.38
37694;BME280;23531;50.122;8.644;2023-03-23T00:56:39;99664.41;;;14.86;49.71
37694;BME280;23531;50.122;8.644;2023-03-23T00:58:42;99655.13;;;14.77;49.34
37694;BME280;23531;50.122;8.644;2023-03-23T01:00:43;99657.28;;;14.80;49.42
37694;BME280;23531;50.122;8.644;2023-03-23T01:02:44;99661.13;;;14.84;49.45
37694;BME280;23531;50.122;8.644;2023-03-23T01:04:46;99659.75;;;14.81;49.66
37694;BME280;23531;50.122;8.644;2023-03-23T01:06:52;99669.56;;;14.87;49.66
37694;BME280;23531;50.122;8.644;2023-03-23T01:08:54;99667.41;;;14.89;49.85
37694;BME280;23531;50.122;8.644;2023-03-23T01:11:01;99665.16;;;14.81;49.31
37694;BME280;23531;50.122;8.644;2023-03-23T01:13:03;99662.78;;;14.90;49.91
37694;BME280;23531;50.122;8.644;2023-03-23T01:15:07;99659.84;;;14.92;49.42
37694;BME280;23531;50.122;8.644;2023-03-23T01:17:08;99652.75;;;14.85;49.57
37694;BME280;23531;50.122;8.644;2023-03-23T01:19:09;99645.66;;;14.79;49.47
37694;BME280;23531;50.122;8.644;2023-03-23T01:21:12;99656.47;;;14.79;49.75
37694;BME280;23531;50.122;8.644;2023-03-23T01:23:14;99652.69;;;14.80;49.81
37694;BME280;23531;50.122;8.644;2023-03-23T01:25:15;99659.50;;;14.83;49.23
37694;BME280;23531;50.122;8.644;2023-03-23T01:27:17;99656.69;;;14.73;49.42
37694;BME280;23531;50.122;8.644;2023-03-23T01:29:18;99648.31;;;14.74;49.55
37694;BME280;23531;50.122;8.644;2023-03-23T01:31:21;99642.41;;;14.77;49.73
37694;BME280;23531;50.122;8.644;2023-03-23T01:33:23;99652.94;;;14.79;49.41
37694;BME280;23531;50.122;8.644;2023-03-23T01:35:25;99648.09;;;14.81;49.94
37694;BME280;23531;50.122;8.644;2023-03-23T01:37:26;99651.03;;;14.74;49.48
37694;BME280;23531;50.122;8.644;2023-03-23T01:39:27;99648.00;;;14.71;49.83
37694;BME280;23531;50.122;8.644;2023-03-23T01:41:29;99648.31;;;14.74;49.96
37694;BME280;23531;50.122;8.644;2023-03-23T01:43:30;99639.84;;;14.66;50.06
37694;BME280;23531;50.122;8.644;2023-03-23T01:45:32;99641.28;;;14.73;49.99
37694;BME280;23531;50.122;8.644;2023-03-23T01:47:36;99633.50;;;14.82;50.21
37694;BME280;23531;50.122;8.644;2023-03-23T01:49:38;99631.34;;;14.84;49.83
37694;BME280;23531;50.122;8.644;2023-03-23T01:51:42;99641.38;;;14.83;49.51
37694;BME280;23531;50.122;8.644;2023-03-23T01:53:46;99635.28;;;14.71;50.00
37694;BME280;23531;50.122;8.644;2023-03-23T01:55:47;99635.34;;;14.76;50.00
37694;BME280;23531;50.122;8.644;2023-03-23T01:57:50;99635.63;;;14.80;49.94
37694;BME280;23531;50.122;8.644;2023-03-23T01:59:53;99630.75;;;14.77;49.78
37694;BME280;23531;50.122;8.644;2023-03-23T02:01:55;99639.88;;;14.71;49.74
37694;BME280;23531;50.122;8.644;2023-03-23T02:03:58;99642.09;;;14.74;49.54
37694;BME280;23531;50.122;8.644;2023-03-23T02:06:00;99638.06;;;14.76;49.66
37694;BME280;23531;50.122;8.644;2023-03-23T02:08:04;99640.28;;;14.84;49.92
37694;BME280;23531;50.122;8.644;2023-03-23T02:10:08;99647.09;;;14.87;49.58
37694;BME280;23531;50.122;8.644;2023-03-23T02:12:10;99645.22;;;14.93;49.71
37694;BME280;23531;50.122;8.644;2023-03-23T02:14:11;99654.13;;;14.88;49.65
37694;BME280;23531;50.122;8.644;2023-03-23T02:16:14;99649.47;;;14.83;49.41
37694;BME280;23531;50.122;8.644;2023-03-23T02:18:22;99647.84;;;14.82;49.44
37694;BME280;23531;50.122;8.644;2023-03-23T02:20:38;99646.03;;;14.88;49.45
37694;BME280;23531;50.122;8.644;2023-03-23T02:22:54;99652.75;;;14.85;49.10
37694;BME280;23531;50.122;8.644;2023-03-23T02:25:10;99645.13;;;14.82;49.25
37694;BME280;23531;50.122;8.644;2023-03-23T02:27:20;99638.31;;;14.75;49.06
37694;BME280;23531;50.122;8.644;2023-03-23T02:29:39;99637.53;;;14.79;49.42
37694;BME280;23531;50.122;8.644;2023-03-23T02:31:44;99628.91;;;14.82;49.17
37694;BME280;23531;50.122;8.644;2023-03-23T02:33:50;99629.69;;;14.78;49.38
37694;BME280;23531;50.122;8.644;2023-03-23T02:35:54;99619.63;;;14.73;49.52
37694;BME280;23531;50.122;8.644;2023-03-23T02:37:57;99617.41;;;14.70;50.30
37694;BME280;23531;50.122;8.644;2023-03-23T02:40:02;99620.75;;;14.77;50.55
37694;BME280;23531;50.122;8.644;2023-03-23T02:42:07;99627.44;;;14.70;51.03
37694;BME280;23531;50.122;8.644;2023-03-23T02:44:09;99625.59;;;14.75;51.61
37694;BME280;23531;50.122;8.644;2023-03-23T02:46:11;99630.03;;;14.86;52.00
37694;BME280;23531;50.122;8.644;2023-03-23T02:48:15;99638.66;;;14.83;52.72
37694;BME280;23531;50.122;8.644;2023-03-23T02:50:21;99631.34;;;14.57;53.97
37694;BME280;23531;50.122;8.644;2023-03-23T02:52:24;99636.66;;;14.47;55.31
37694;BME280;23531;50.122;8.644;2023-03-23T02:54:26;99625.97;;;14.35;56.28
37694;BME280;23531;50.122;8.644;2023-03-23T02:56:29;99629.06;;;14.22;57.38
37694;BME280;23531;50.122;8.644;2023-03-23T02:58:32;99624.41;;;14.17;57.53
37694;BME280;23531;50.122;8.644;2023-03-23T03:00:34;99617.16;;;14.23;58.06
37694;BME280;23531;50.122;8.644;2023-03-23T03:02:35;99609.88;;;14.24;58.72
37694;BME280;23531;50.122;8.644;2023-03-23T03:04:38;99607.63;;;14.15;59.62
37694;BME280;23531;50.122;8.644;2023-03-23T03:06:44;99610.41;;;14.21;59.41
37694;BME280;23531;50.122;8.644;2023-03-23T03:08:50;99613.03;;;14.15;59.24
37694;BME280;23531;50.122;8.644;2023-03-23T03:10:54;99603.78;;;14.11;60.15
37694;BME280;23531;50.122;8.644;2023-03-23T03:12:59;99610.28;;;14.10;59.93
37694;BME280;23531;50.122;8.644;2023-03-23T03:15:06;99607.13;;;14.18;59.52
37694;BME280;23531;50.122;8.644;2023-03-23T03:17:10;99596.69;;;14.05;59.49
37694;BME280;23531;50.122;8.644;2023-03-23T03:19:16;99601.53;;;14.03;59.86
37694;BME280;23531;50.122;8.644;2023-03-23T03:21:20;99602.69;;;14.07;60.17
37694;BME280;23531;50.122;8.644;2023-03-23T03:23:26;99600.78;;;14.08;60.42
37694;BME280;23531;50.122;8.644;2023-03-23T03:25:28;99600.97;;;14.01;60.67
37694;BME280;23531;50.122;8.644;2023-03-23T03:27:30;99603.84;;;14.16;60.41
37694;BME280;23531;50.122;8.644;2023-03-23T03:29:33;99598.69;;;14.15;60.46
37694;BME280;23531;50.122;8.644;2023-03-23T03:31:39;99611.16;;;14.16;60.65
37694;BME280;23531;50.122;8.644;2023-03-23T03:33:45;99600.78;;;14.08;60.76
37694;BME280;23531;50.122;8.644;2023-03-23T03:35:46;99599.97;;;14.07;61.18
37694;BME280;23531;50.122;8.644;2023-03-23T03:37:49;99602.53;;;14.19;61.48
37694;BME280;23531;50.122;8.644;2023-03-23T03:39:52;99603.94;;;14.22;61.22
37694;BME280;23531;50.122;8.644;2023-03-23T03:41:53;99602.09;;;14.05;61.38
37694;BME280;23531;50.122;8.644;2023-03-23T03:43:55;99604.25;;;14.03;61.59
37694;BME280;23531;50.122;8.644;2023-03-23T03:45:56;99607.88;;;14.14;61.54
37694;BME280;23531;50.122;8.644;2023-03-23T03:47:58;99614.53;;;14.28;61.54
37694;BME280;23531;50.122;8.644;2023-03-23T03:50:00;99620.81;;;14.34;61.33
37694;BME280;23531;50.122;8.644;2023-03-23T03:52:01;99615.91;;;14.31;61.23
37694;BME280;23531;50.122;8.644;2023-03-23T03:54:03;99613.22;;;14.31;61.37
37694;BME280;23531;50.122;8.644;2023-03-23T03:56:06;99617.50;;;14.27;61.54
37694;BME280;23531;50.122;8.644;2023-03-23T03:58:07;99619.19;;;14.33;61.15
37694;BME280;23531;50.122;8.644;2023-03-23T04:00:09;99616.81;;;14.14;61.61
37694;BME280;23531;50.122;8.644;2023-03-23T04:02:14;99606.69;;;14.05;62.11
37694;BME280;23531;50.122;8.644;2023-03-23T04:04:20;99617.59;;;14.10;62.06
37694;BME280;23531;50.122;8.644;2023-03-23T04:06:21;99620.09;;;14.16;61.73
37694;BME280;23531;50.122;8.644;2023-03-23T04:08:23;99617.13;;;13.96;62.42
37694;BME280;23531;50.122;8.644;2023-03-23T04:10:27;99620.66;;;13.97;62.89
37694;BME280;23531;50.122;8.644;2023-03-23T04:12:30;99621.59;;;14.07;63.09
37694;BME280;23531;50.122;8.644;2023-03-23T04:14:31;99609.97;;;14.07;63.16
37694;BME280;23531;50.122;8.644;2023-03-23T04:16:33;99614.81;;;14.05;62.87
37694;BME280;23531;50.122;8.644;2023-03-23T04:18:35;99618.78;;;13.97;63.16
37694;BME280;23531;50.122;8.644;2023-03-23T04:20:36;99618.22;;;13.95;63.65
37694;BME280;23531;50.122;8.644;2023-03-23T04:22:37;99608.91;;;13.86;64.27
37694;BME280;23531;50.122;8.644;2023-03-23T04:24:39;99618.66;;;13.87;64.26
37694;BME280;23531;50.122;8.644;2023-03-23T04:26:40;99621.34;;;13.87;64.32
37694;BME280;23531;50.122;8.644;2023-03-23T04:28:43;99624.91;;;13.93;64.01
37694;BME280;23531;50.122;8.644;2023-03-23T04:30:45;99619.19;;;13.89;64.19
37694;BME280;23531;50.122;8.644;2023-03-23T04:32:50;99628.00;;;13.79;64.72
37694;BME280;23531;50.122;8.644;2023-03-23T04:34:55;99626.94;;;13.80;64.95
37694;BME280;23531;50.122;8.644;2023-03-23T04:36:57;99636.06;;;13.96;64.87
37694;BME280;23531;50.122;8.644;2023-03-23T04:38:59;99634.06;;;14.08;64.53
37694;BME280;23531;50.122;8.644;2023-03-23T04:41:00;99635.81;;;13.98;64.66
37694;BME280;23531;50.122;8.644;2023-03-23T04:43:02;99639.03;;;13.78;65.12
37694;BME280;23531;50.122;8.644;2023-03-23T04:45:07;99633.59;;;13.73;65.33
37694;BME280;23531;50.122;8.644;2023-03-23T04:47:09;99623.78;;;13.89;65.36
37694;BME280;23531;50.122;8.644;2023-03-23T04:49:10;99638.69;;;13.91;65.03
37694;BME280;23531;50.122;8.644;2023-03-23T04:51:12;99647.44;;;13.76;65.20
37694;BME280;23531;50.122;8.644;2023-03-23T04:53:13;99641.09;;;13.88;65.33
37694;BME280;23531;50.122;8.644;2023-03-23T04:55:14;99642.28;;;13.97;65.17
37694;BME280;23531;50.122;8.644;2023-03-23T04:57:16;99643.97;;;14.03;64.76
37694;BME280;23531;50.122;8.644;2023-03-23T04:59:17;99633.28;;;13.91;64.93
37694;BME280;23531;50.122;8.644;2023-03-23T05:01:19;99644.84;;;13.87;64.99
37694;BME280;23531;50.122;8.644;2023-03-23T05:03:21;99637.94;;;13.74;65.10
37694;BME280;23531;50.122;8.644;2023-03-23T05:05:22;99635.16;;;13.69;65.52
37694;BME280;23531;50.122;8.644;2023-03-23T05:07:24;99639.25;;;13.71;65.65
37694;BME280;23531;50.122;8.644;2023-03-23T05:09:25;99638.03;;;13.62;65.57
37694;BME280;23531;50.122;8.644;2023-03-23T05:11:27;99627.47;;;13.61;65.85
37694;BME280;23531;50.122;8.644;2023-03-23T05:13:28;99633.69;;;13.61;65.77
37694;BME280;23531;50.122;8.644;2023-03-23T05:15:29;99632.69;;;13.67;65.83
37694;BME280;23531;50.122;8.644;2023-03-23T05:17:32;99634.06;;;13.70;65.81
37694;BME280;23531;50.122;8.644;2023-03-23T05:19:33;99639.88;;;13.78;65.66
37694;BME280;23531;50.122;8.644;2023-03-23T05:21:35;99641.69;;;13.73;65.90
37694;BME280;23531;50.122;8.644;2023-03-23T05:23:37;99644.97;;;13.75;66.03
37694;BME280;23531;50.122;8.644;2023-03-23T05:25:38;99638.06;;;13.84;65.76
37694;BME280;23531;50.122;8.644;2023-03-23T05:27:40;99635.59;;;13.82;65.83
37694;BME280;23531;50.122;8.644;2023-03-23T05:29:43;99642.66;;;13.84;65.88
37694;BME280;23531;50.122;8.644;2023-03-23T05:31:45;99649.84;;;13.78;66.37
37694;BME280;23531;50.122;8.644;2023-03-23T05:33:49;99648.06;;;13.84;66.70
37694;BME280;23531;50.122;8.644;2023-03-23T05:35:50;99643.50;;;13.89;66.25
37694;BME280;23531;50.122;8.644;2023-03-23T05:37:51;99645.59;;;13.82;66.61
37694;BME280;23531;50.122;8.644;2023-03-23T05:39:53;99645.91;;;13.86;66.72
37694;BME280;23531;50.122;8.644;2023-03-23T05:41:55;99653.13;;;13.80;66.99
37694;BME280;23531;50.122;8.644;2023-03-23T05:43:56;99650.03;;;13.71;67.45
37694;BME280;23531;50.122;8.644;2023-03-23T05:45:58;99649.38;;;13.81;67.31
37694;BME280;23531;50.122;8.644;2023-03-23T05:47:59;99646.09;;;13.79;67.21
37694;BME280;23531;50.122;8.644;2023-03-23T05:50:02;99654.88;;;13.69;67.35
37694;BME280;23531;50.122;8.644;2023-03-23T05:52:03;99657.09;;;13.72;67.75
37694;BME280;23531;50.122;8.644;2023-03-23T05:54:04;99654.75;;;13.81;67.43
37694;BME280;23531;50.122;8.644;2023-03-23T05:56:06;99652.06;;;13.81;67.67
37694;BME280;23531;50.122;8.644;2023-03-23T05:58:08;99659.09;;;13.82;67.86
37694;BME280;23531;50.122;8.644;2023-03-23T06:00:09;99656.72;;;13.86;67.71
37694;BME280;23531;50.122;8.644;2023-03-23T06:02:12;99668.34;;;13.86;67.96
37694;BME280;23531;50.122;8.644;2023-03-23T06:04:14;99668.94;;;13.88;67.93
37694;BME280;23531;50.122;8.644;2023-03-23T06:06:17;99680.03;;;13.92;67.98
37694;BME280;23531;50.122;8.644;2023-03-23T06:08:19;99677.66;;;13.95;67.84
37694;BME280;23531;50.122;8.644;2023-03-23T06:10:20;99672.25;;;13.95;67.58
37694;BME280;23531;50.122;8.644;2023-03-23T06:12:23;99678.66;;;13.89;67.81
37694;BME280;23531;50.122;8.644;2023-03-23T06:14:24;99672.13;;;13.85;68.47
37694;BME280;23531;50.122;8.644;2023-03-23T06:16:26;99674.16;;;13.78;68.48
37694;BME280;23531;50.122;8.644;2023-03-23T06:18:27;99678.50;;;13.79;68.59
37694;BME280;23531;50.122;8.644;2023-03-23T06:20:29;99682.34;;;13.83;68.87
37694;BME280;23531;50.122;8.644;2023-03-23T06:22:31;99683.44;;;13.82;68.90
37694;BME280;23531;50.122;8.644;2023-03-23T06:24:33;99689.84;;;13.76;69.44
37694;BME280;23531;50.122;8.644;2023-03-23T06:26:35;99686.31;;;13.75;69.40
37694;BME280;23531;50.122;8.644;2023-03-23T06:28:36;99688.75;;;13.77;69.19
37694;BME280;23531;50.122;8.644;2023-03-23T06:30:38;99683.63;;;13.75;69.44
37694;BME280;23531;50.122;8.644;2023-03-23T06:32:39;99683.63;;;13.75;69.76
37694;BME280;23531;50.122;8.644;2023-03-23T06:34:41;99691.72;;;13.75;69.98
37694;BME280;23531;50.122;8.644;2023-03-23T06:36:43;99695.72;;;13.73;70.35
37694;BME280;23531;50.122;8.644;2023-03-23T06:38:46;99697.94;;;13.76;70.42
37694;BME280;23531;50.122;8.644;2023-03-23T06:40:47;99706.59;;;13.78;70.58
37694;BME280;23531;50.122;8.644;2023-03-23T06:42:49;99702.25;;;13.77;70.69
37694;BME280;23531;50.122;8.644;2023-03-23T06:44:50;99692.16;;;13.89;70.42
37694;BME280;23531;50.122;8.644;2023-03-23T06:46:52;99702.63;;;13.64;71.09
37694;BME280;23531;50.122;8.644;2023-03-23T06:48:53;99693.13;;;13.61;71.68
37694;BME280;23531;50.122;8.644;2023-03-23T06:50:55;99694.91;;;13.72;71.38
37694;BME280;23531;50.122;8.644;2023-03-23T06:52:56;99712.75;;;13.73;71.32
37694;BME280;23531;50.122;8.644;2023-03-23T06:54:59;99711.44;;;13.76;71.24
37694;BME280;23531;50.122;8.644;2023-03-23T06:57:00;99707.16;;;13.80;71.04
37694;BME280;23531;50.122;8.644;2023-03-23T06:59:02;99707.16;;;13.80;71.23
37694;BME280;23531;50.122;8.644;2023-03-23T07:01:03;99702.09;;;13.84;71.06
37694;BME280;23531;50.122;8.644;2023-03-23T07:03:05;99696.97;;;13.65;71.33
37694;BME280;23531;50.122;8.644;2023-03-23T07:05:06;99689.59;;;13.61;71.67
37694;BME280;23531;50.122;8.644;2023-03-23T07:07:09;99691.44;;;13.77;71.78
37694;BME280;23531;50.122;8.644;2023-03-23T07:09:12;99694.41;;;13.75;71.59
37694;BME280;23531;50.122;8.644;2023-03-23T07:11:15;99694.47;;;13.80;71.69
37694;BME280;23531;50.122;8.644;2023-03-23T07:13:16;99703.25;;;13.71;71.81
37694;BME280;23531;50.122;8.644;2023-03-23T07:15:17;99702.44;;;13.87;71.67
37694;BME280;23531;50.122;8.644;2023-03-23T07:17:18;99704.56;;;13.85;71.71
37694;BME280;23531;50.122;8.644;2023-03-23T07:19:20;99705.78;;;13.77;72.13
37694;BME280;23531;50.122;8.644;2023-03-23T07:21:21;99709.88;;;13.80;72.65
37694;BME280;23531;50.122;8.644;2023-03-23T07:23:22;99717.91;;;13.75;72.62
37694;BME280;23531;50.122;8.644;2023-03-23T07:25:23;99721.94;;;13.72;73.00
37694;BME280;23531;50.122;8.644;2023-03-23T07:27:26;99722.59;;;13.63;73.87
37694;BME280;23531;50.122;8.644;2023-03-23T07:29:28;99720.53;;;13.70;73.53
37694;BME280;23531;50.122;8.644;2023-03-23T07:31:29;99724.06;;;13.70;74.35
37694;BME280;23531;50.122;8.644;2023-03-23T07:33:31;99719.97;;;13.68;74.36
37694;BME280;23531;50.122;8.644;2023-03-23T07:35:32;99727.09;;;13.74;73.92
37694;BME280;23531;50.122;8.644;2023-03-23T07:37:33;99719.38;;;13.82;74.13
37694;BME280;23531;50.122;8.644;2023-03-23T07:39:35;99733.69;;;13.83;74.01
37694;BME280;23531;50.122;8.644;2023-03-23T07:41:37;99734.19;;;13.80;74.10
37694;BME280;23531;50.122;8.644;2023-03-23T07:43:40;99722.91;;;13.83;74.19
37694;BME280;23531;50.122;8.644;2023-03-23T07:45:42;99729.69;;;13.69;74.55
37694;BME280;23531;50.122;8.644;2023-03-23T07:47:43;99727.47;;;13.66;75.10
37694;BME280;23531;50.122;8.644;2023-03-23T07:49:44;99733.97;;;13.65;75.36
37694;BME280;23531;50.122;8.644;2023-03-23T07:51:46;99734.72;;;13.60;75.38
37694;BME280;23531;50.122;8.644;2023-03-23T07:53:47;99734.94;;;13.59;76.23
37694;BME280;23531;50.122;8.644;2023-03-23T07:55:49;99737.16;;;13.62;76.20
37694;BME280;23531;50.122;8.644;2023-03-23T07:57:52;99736.69;;;13.65;76.03
37694;BME280;23531;50.122;8.644;2023-03-23T07:59:55;99745.03;;;13.63;76.38
37694;BME280;23531;50.122;8.644;2023-03-23T08:01:57;99739.09;;;13.66;76.16
37694;BME280;23531;50.122;8.644;2023-03-23T08:03:59;99743.53;;;13.56;75.93
37694;BME280;23531;50.122;8.644;2023-03-23T08:06:00;99753.84;;;13.59;76.24
37694;BME280;23531;50.122;8.644;2023-03-23T08:08:01;99757.72;;;13.63;76.20
37694;BME280;23531;50.122;8.644;2023-03-23T08:10:03;99752.53;;;13.78;75.79
37694;BME280;23531;50.122;8.644;2023-03-23T08:12:04;99760.25;;;13.86;75.27
37694;BME280;23531;50.122;8.644;2023-03-23T08:14:05;99752.81;;;13.76;75.01
37694;BME280;23531;50.122;8.644;2023-03-23T08:16:08;99753.72;;;13.65;75.08
37694;BME280;23531;50.122;8.644;2023-03-23T08:18:10;99761.53;;;13.67;75.45
37694;BME280;23531;50.122;8.644;2023-03-23T08:20:11;99759.41;;;13.69;74.91
37694;BME280;23531;50.122;8.644;2023-03-23T08:22:13;99762.88;;;13.64;74.77
37694;BME280;23531;50.122;8.644;2023-03-23T08:24:15;99763.41;;;13.66;74.97
37694;BME280;23531;50.122;8.644;2023-03-23T08:26:16;99757.94;;;13.78;74.51
37694;BME280;23531;50.122;8.644;2023-03-23T08:28:18;99754.75;;;13.81;74.49
37694;BME280;23531;50.122;8.644;2023-03-23T08:30:20;99770.13;;;13.80;73.99
37694;BME280;23531;50.122;8.644;2023-03-23T08:32:23;99754.84;;;13.86;73.52
37694;BME280;23531;50.122;8.644;2023-03-23T08:34:24;99758.50;;;13.80;73.76
37694;BME280;23531;50.122;8.644;2023-03-23T08:36:26;99766.03;;;13.78;73.50
37694;BME280;23531;50.122;8.644;2023-03-23T08:38:27;99775.72;;;13.74;73.78
37694;BME280;23531;50.122;8.644;2023-03-23T08:40:29;99776.94;;;13.66;73.86
37694;BME280;23531;50.122;8.644;2023-03-23T08:42:30;99785.84;;;13.67;73.86
37694;BME280;23531;50.122;8.644;2023-03-23T08:44:32;99777.03;;;13.71;73.94
37694;BME280;23531;50.122;8.644;2023-03-23T08:46:33;99789.88;;;13.81;73.58
37694;BME280;23531;50.122;8.644;2023-03-23T08:48:36;99795.28;;;13.81;73.41
37694;BME280;23531;50.122;8.644;2023-03-23T08:50:39;99791.84;;;13.86;73.05
37694;BME280;23531;50.122;8.644;2023-03-23T08:52:41;99789.88;;;13.81;73.31
37694;BME280;23531;50.122;8.644;2023-03-23T08:54:43;99785.88;;;13.84;73.13
37694;BME280;23531;50.122;8.644;2023-03-23T08:56:47;99778.41;;;13.91;73.19
37694;BME280;23531;50.122;8.644;2023-03-23T08:58:48;99789.06;;;13.80;72.82
37694;BME280;23531;50.122;8.644;2023-03-23T09:00:49;99782.16;;;13.90;72.94
37694;BME280;23531;50.122;8.644;2023-03-23T09:02:52;99779.41;;;13.85;73.06
37694;BME280;23531;50.122;8.644;2023-03-23T09:04:54;99775.41;;;13.87;72.92
37694;BME280;23531;50.122;8.644;2023-03-23T09:06:56;99772.41;;;13.89;73.09
37694;BME280;23531;50.122;8.644;2023-03-23T09:08:58;99772.84;;;13.97;73.13
37694;BME280;23531;50.122;8.644;2023-03-23T09:11:01;99775.44;;;13.92;73.08
37694;BME280;23531;50.122;8.644;2023-03-23T09:13:03;99766.13;;;13.83;73.27
37694;BME280;23531;50.122;8.644;2023-03-23T09:15:04;99773.00;;;13.91;73.14
37694;BME280;23531;50.122;8.644;2023-03-23T09:17:09;99775.41;;;13.87;72.86
37694;BME280;23531;50.122;8.644;2023-03-23T09:19:11;99769.06;;;13.98;72.74
37694;BME280;23531;50.122;8.644;2023-03-23T09:21:13;99771.59;;;14.05;72.73
37694;BME280;23531;50.122;8.644;2023-03-23T09:23:15;99777.25;;;14.03;72.19
37694;BME280;23531;50.122;8.644;2023-03-23T09:25:16;99776.19;;;14.04;72.54
37694;BME280;23531;50.122;8.644;2023-03-23T09:27:19;99778.19;;;14.14;72.57
37694;BME280;23531;50.122;8.644;2023-03-23T09:29:20;99781.91;;;14.08;72.24
37694;BME280;23531;50.122;8.644;2023-03-23T09:31:21;99783.31;;;14.10;72.26
37694;BME280;23531;50.122;8.644;2023-03-23T09:33:27;99780.66;;;14.15;72.11
37694;BME280;23531;50.122;8.644;2023-03-23T09:35:34;99788.19;;;14.30;71.66
37694;BME280;23531;50.122;8.644;2023-03-23T09:37:38;99782.75;;;14.30;71.41
37694;BME280;23531;50.122;8.644;2023-03-23T09:39:39;99787.06;;;14.48;71.19
37694;BME280;23531;50.122;8.644;2023-03-23T09:41:48;99771.09;;;14.46;70.78
37694;BME280;23531;50.122;8.644;2023-03-23T09:43:57;99785.53;;;14.52;70.50
37694;BME280;23531;50.122;8.644;2023-03-23T09:46:04;99784.00;;;14.61;69.97
37694;BME280;23531;50.122;8.644;2023-03-23T09:48:23;99780.03;;;14.69;69.92
37694;BME280;23531;50.122;8.644;2023-03-23T09:50:27;99779.34;;;14.78;68.54
37694;BME280;23531;50.122;8.644;2023-03-23T09:52:35;99773.84;;;14.95;68.44
37694;BME280;23531;50.122;8.644;2023-03-23T09:54:40;99790.91;;;14.96;67.74
37694;BME280;23531;50.122;8.644;2023-03-23T09:56:42;99783.94;;;15.00;67.97
37694;BME280;23531;50.122;8.644;2023-03-23T09:58:45;99777.13;;;14.97;67.38
37694;BME280;23531;50.122;8.644;2023-03-23T10:00:48;99767.88;;;14.93;68.27
37694;BME280;23531;50.122;8.644;2023-03-23T10:02:55;99785.00;;;14.99;68.65
37694;BME280;23531;50.122;8.644;2023-03-23T10:05:03;99778.53;;;15.05;68.77
37694;BME280;23531;50.122;8.644;2023-03-23T10:07:09;99775.91;;;15.10;68.81
37694;BME280;23531;50.122;8.644;2023-03-23T10:09:12;99791.09;;;15.11;68.93
37694;BME280;23531;50.122;8.644;2023-03-23T10:11:20;99790.78;;;14.85;69.93
37694;BME280;23531;50.122;8.644;2023-03-23T10:13:26;99787.53;;;14.83;70.54
37694;BME280;23531;50.122;8.644;2023-03-23T10:15:30;99792.44;;;14.86;71.11
37694;BME280;23531;50.122;8.644;2023-03-23T10:17:33;99791.38;;;14.87;71.02
37694;BME280;23531;50.122;8.644;2023-03-23T10:19:37;99799.84;;;14.96;71.01
37694;BME280;23531;50.122;8.644;2023-03-23T10:21:42;99800.34;;;14.93;71.23
37694;BME280;23531;50.122;8.644;2023-03-23T10:23:51;99806.09;;;14.75;70.72
37694;BME280;23531;50.122;8.644;2023-03-23T10:25:55;99797.66;;;14.71;71.67
37694;BME280;23531;50.122;8.644;2023-03-23T10:28:01;99815.09;;;14.80;70.78
37694;BME280;23531;50.122;8.644;2023-03-23T10:30:13;99818.94;;;14.84;70.10
37694;BME280;23531;50.122;8.644;2023-03-23T10:32:16;99824.13;;;14.91;69.99
37694;BME280;23531;50.122;8.644;2023-03-23T10:34:20;99818.13;;;14.84;68.79
37694;BME280;23531;50.122;8.644;2023-03-23T10:36:23;99823.59;;;14.89;69.30
37694;BME280;23531;50.122;8.644;2023-03-23T10:38:26;99826.22;;;14.84;68.55
37694;BME280;23531;50.122;8.644;2023-03-23T10:40:30;99818.94;;;14.84;67.62
37694;BME280;23531;50.122;8.644;2023-03-23T10:42:33;99821.38;;;14.86;66.95
37694;BME280;23531;50.122;8.644;2023-03-23T10:44:36;99813.88;;;14.93;66.90
37694;BME280;23531;50.122;8.644;2023-03-23T10:46:41;99811.41;;;14.92;66.32
37694;BME280;23531;50.122;8.644;2023-03-23T10:48:47;99806.13;;;15.02;66.48
37694;BME280;23531;50.122;8.644;2023-03-23T10:50:50;99813.25;;;15.08;66.27